Time;durP1;ratioP1;P1;durP2;ratioP2;P2;SDS_P1;SDS_P2;PMS_P1;PMS_P2;Temp;Humidity;BMP_temperature;BMP_pressure;BME280_temperature;BME280_humidity;BME280_pressure;Samples;Min_cycle;Max_cycle;Signal;HPM_P1;HPM_P2
2021/06/02 00:02:12;;;;;;;2.70;1.85;;;12.80;70.30;;;;;;5071162;28;20031;-67
2021/06/02 00:04:48;;;;;;;2.50;1.83;;;12.70;70.00;;;;;;5071711;28;20036;-67
2021/06/02 00:07:24;;;;;;;2.55;1.98;;;12.70;70.20;;;;;;5070033;28;20052;-66
2021/06/02 00:09:51;;;;;;;1.50;1.40;;;12.60;70.40;;;;;;5071511;28;20028;-68
2021/06/02 00:12:18;;;;;;;2.03;1.73;;;12.60;70.40;;;;;;5062507;28;20047;-67
2021/06/02 00:14:45;;;;;;;2.58;1.50;;;12.60;70.70;;;;;;5071811;28;20032;-66
2021/06/02 00:17:11;;;;;;;2.65;1.90;;;12.50;70.70;;;;;;5070155;28;20135;-67
2021/06/02 00:19:37;;;;;;;3.05;1.63;;;12.50;70.90;;;;;;5071603;28;20037;-66
2021/06/02 00:22:08;;;;;;;2.38;1.50;;;12.50;71.00;;;;;;5070339;28;20033;-67
2021/06/02 00:24:35;;;;;;;2.13;1.88;;;12.50;71.20;;;;;;5071580;28;20046;-66
2021/06/02 00:27:05;;;;;;;2.40;1.98;;;12.40;71.20;;;;;;5070788;28;20036;-72
2021/06/02 00:29:34;;;;;;;3.28;2.00;;;12.40;71.10;;;;;;5071992;28;20028;-67
2021/06/02 00:32:02;;;;;;;2.80;1.80;;;12.40;71.00;;;;;;5070781;28;20044;-72
2021/06/02 00:34:28;;;;;;;1.48;1.38;;;12.40;71.20;;;;;;5069695;28;20039;-67
2021/06/02 00:36:54;;;;;;;1.73;1.60;;;12.50;71.20;;;;;;5070700;28;20036;-66
2021/06/02 00:39:21;;;;;;;2.72;1.63;;;12.40;71.30;;;;;;5069488;28;20127;-67
2021/06/02 00:41:48;;;;;;;2.28;1.60;;;12.40;71.60;;;;;;5071212;28;20032;-67
2021/06/02 00:44:16;;;;;;;3.22;1.80;;;12.40;71.90;;;;;;5052581;28;20032;-66
2021/06/02 00:46:43;;;;;;;2.55;1.50;;;12.30;72.10;;;;;;5071517;28;20028;-66
2021/06/02 00:49:24;;;;;;;3.05;2.10;;;12.30;72.30;;;;;;5070205;28;20081;-67
2021/06/02 00:51:56;;;;;;;2.60;1.95;;;12.20;72.90;;;;;;5071151;28;20074;-66
2021/06/02 00:54:24;;;;;;;3.33;1.80;;;12.20;73.00;;;;;;5069926;28;20877;-66
2021/06/02 00:56:53;;;;;;;2.97;1.90;;;12.10;73.40;;;;;;5071400;28;20376;-67
2021/06/02 00:59:28;;;;;;;1.98;1.67;;;12.00;73.60;;;;;;5070600;28;20048;-66
2021/06/02 01:01:54;;;;;;;2.15;1.85;;;12.00;73.50;;;;;;5063690;28;20040;-66
2021/06/02 01:04:24;;;;;;;1.95;1.75;;;11.90;73.70;;;;;;5070398;28;20025;-67
2021/06/02 01:06:51;;;;;;;4.10;1.67;;;11.90;74.10;;;;;;5067090;28;20413;-67
2021/06/02 01:09:20;;;;;;;1.58;1.48;;;11.80;74.60;;;;;;5070557;28;20032;-67
2021/06/02 01:11:51;;;;;;;2.00;1.85;;;11.80;74.80;;;;;;5071292;28;20070;-67
2021/06/02 01:14:20;;;;;;;2.17;1.67;;;11.70;75.30;;;;;;5074326;28;20107;-67
2021/06/02 01:16:46;;;;;;;2.83;1.80;;;11.60;75.90;;;;;;5074833;28;20027;-67
2021/06/02 01:19:18;;;;;;;1.67;1.50;;;11.60;76.30;;;;;;5073801;28;20033;-66
2021/06/02 01:21:54;;;;;;;2.42;1.75;;;11.50;76.90;;;;;;5074628;28;20389;-66
2021/06/02 01:24:20;;;;;;;2.00;1.77;;;11.50;77.60;;;;;;5073720;28;20173;-66
2021/06/02 01:26:51;;;;;;;1.83;1.65;;;11.40;78.10;;;;;;5074897;28;20069;-66
2021/06/02 01:29:17;;;;;;;2.00;1.63;;;11.40;78.80;;;;;;5073609;28;20105;-66
2021/06/02 01:31:43;;;;;;;3.65;2.33;;;11.30;79.40;;;;;;5074418;28;20492;-66
2021/06/02 01:34:31;;;;;;;2.42;2.13;;;11.30;80.00;;;;;;5073764;28;20056;-67
2021/06/02 01:37:13;;;;;;;4.30;2.20;;;11.30;80.50;;;;;;5074975;28;20024;-66
2021/06/02 01:39:59;;;;;;;3.35;2.63;;;11.20;80.90;;;;;;5074452;28;20035;-67
2021/06/02 01:43:02;;;;;;;4.63;2.30;;;11.20;81.00;;;;;;5066614;28;20501;-67
2021/06/02 01:45:54;;;;;;;5.90;2.90;;;11.20;80.90;;;;;;5074051;28;20071;-66
2021/06/02 01:48:29;;;;;;;2.78;2.22;;;11.30;81.20;;;;;;5073530;28;20043;-66
2021/06/02 01:51:15;;;;;;;3.90;1.85;;;11.40;80.70;;;;;;5074173;28;20067;-66
2021/06/02 01:53:59;;;;;;;2.90;1.98;;;11.40;80.30;;;;;;5066438;28;20025;-66
2021/06/02 01:56:52;;;;;;;5.68;2.55;;;11.40;80.40;;;;;;5073223;28;20560;-66
2021/06/02 01:59:33;;;;;;;3.22;1.98;;;11.40;80.20;;;;;;5073253;28;20090;-66
2021/06/02 02:01:59;;;;;;;;;;;11.40;80.20;;;;;;5074690;28;20066;-66
2021/06/02 02:04:56;;;;;;;2.90;2.05;;;11.40;80.40;;;;;;5073321;28;19909;-67
2021/06/02 02:07:56;;;;;;;3.13;2.28;;;11.30;80.80;;;;;;5059567;28;20032;-66
2021/06/02 02:10:40;;;;;;;3.35;2.47;;;11.20;82.00;;;;;;5065054;28;20024;-66
2021/06/02 02:13:09;;;;;;;3.30;2.22;;;11.20;83.40;;;;;;5073338;28;20055;-67
2021/06/02 02:16:06;;;;;;;2.40;2.15;;;11.10;84.10;;;;;;5073927;28;20473;-66
2021/06/02 02:19:03;;;;;;;3.60;2.20;;;11.10;83.80;;;;;;5073728;28;20082;-66
2021/06/02 02:21:40;;;;;;;4.22;2.60;;;11.00;83.80;;;;;;5054017;28;20074;-66
2021/06/02 02:24:11;;;;;;;3.38;2.60;;;11.00;84.30;;;;;;5072496;28;20112;-71
2021/06/02 02:26:46;;;;;;;2.95;2.42;;;11.00;84.60;;;;;;5074039;28;20033;-66
2021/06/02 02:29:19;;;;;;;4.63;2.40;;;10.90;84.10;;;;;;5072485;28;20040;-66
2021/06/02 02:31:56;;;;;;;3.75;2.60;;;10.90;84.40;;;;;;5065140;28;20048;-66
2021/06/02 02:34:34;;;;;;;3.42;2.13;;;10.90;84.90;;;;;;5072843;28;20086;-66
2021/06/02 02:37:16;;;;;;;3.03;2.17;;;10.80;85.30;;;;;;5066165;28;20461;-66
2021/06/02 02:39:58;;;;;;;4.53;2.28;;;10.80;86.10;;;;;;5073238;28;20479;-66
2021/06/02 02:42:49;;;;;;;2.05;1.85;;;10.70;86.90;;;;;;5064695;28;20032;-67
2021/06/02 02:45:35;;;;;;;3.30;1.98;;;10.60;86.80;;;;;;5072575;28;20040;-67
2021/06/02 02:48:29;;;;;;;2.30;2.10;;;10.60;87.60;;;;;;5073315;28;20377;-67
2021/06/02 02:51:45;;;;;;;2.40;2.20;;;10.50;88.60;;;;;;5065464;28;20052;-67
2021/06/02 02:54:18;;;;;;;3.08;2.13;;;10.40;89.20;;;;;;5016930;28;20040;-67
2021/06/02 02:57:12;;;;;;;2.60;2.10;;;10.40;90.20;;;;;;5054680;28;20482;-67
2021/06/02 03:00:03;;;;;;;3.28;2.70;;;10.30;90.70;;;;;;5072624;28;20074;-67
2021/06/02 03:02:40;;;;;;;2.85;2.30;;;10.30;91.30;;;;;;5072264;28;20028;-67
2021/06/02 03:05:11;;;;;;;3.60;2.30;;;10.20;91.30;;;;;;5072722;28;20025;-72
2021/06/02 03:07:40;;;;;;;2.95;2.10;;;10.30;91.30;;;;;;5064937;28;20466;-67
2021/06/02 03:10:09;;;;;;;5.93;2.33;;;10.20;91.20;;;;;;5071931;28;20028;-72
2021/06/02 03:13:00;;;;;;;3.67;2.40;;;10.20;91.30;;;;;;5072983;28;20419;-66
2021/06/02 03:15:44;;;;;;;7.38;2.70;;;10.20;91.30;;;;;;5066739;28;20059;-67
2021/06/02 03:18:35;;;;;;;2.83;2.05;;;10.20;91.50;;;;;;5071859;28;20025;-67
2021/06/02 03:21:16;;;;;;;3.63;2.72;;;10.30;91.50;;;;;;5072185;28;20052;-67
2021/06/02 03:24:08;;;;;;;2.63;2.17;;;10.20;91.50;;;;;;5072741;28;20020;-66
2021/06/02 03:26:38;;;;;;;2.83;2.20;;;10.20;91.60;;;;;;5072435;28;20051;-66
2021/06/02 03:29:13;;;;;;;2.40;1.92;;;10.10;91.60;;;;;;5072528;28;20032;-70
2021/06/02 03:32:16;;;;;;;2.90;2.33;;;10.10;92.00;;;;;;5064915;28;20024;-67
2021/06/02 03:35:07;;;;;;;2.13;1.73;;;10.10;92.40;;;;;;5064510;28;20028;-66
2021/06/02 03:37:58;;;;;;;5.43;2.22;;;10.00;92.60;;;;;;5072139;28;20055;-66
2021/06/02 03:40:55;;;;;;;2.72;2.53;;;9.90;93.20;;;;;;5066144;28;20520;-66
2021/06/02 03:43:27;;;;;;;3.03;2.20;;;9.90;93.40;;;;;;5046954;28;20373;-66
2021/06/02 03:46:18;;;;;;;4.55;2.75;;;9.80;93.60;;;;;;5071783;28;20503;-69
2021/06/02 03:49:05;;;;;;;4.82;2.75;;;9.80;94.20;;;;;;5061453;28;20059;-67
2021/06/02 03:51:50;;;;;;;2.80;2.33;;;9.80;94.80;;;;;;5066145;28;20492;-66
2021/06/02 03:54:16;;;;;;;3.65;2.22;;;9.70;94.70;;;;;;5063227;28;20025;-67
2021/06/02 03:57:00;;;;;;;3.30;2.70;;;9.70;94.80;;;;;;5072057;28;20032;-67
2021/06/02 03:59:29;;;;;;;3.72;2.60;;;9.70;94.70;;;;;;5070824;28;20016;-67
2021/06/02 04:02:21;;;;;;;3.17;2.55;;;9.70;94.80;;;;;;5071911;28;20035;-66
2021/06/02 04:05:14;;;;;;;2.97;2.15;;;9.70;94.90;;;;;;5009453;28;20036;-67
2021/06/02 04:08:12;;;;;;;3.55;2.30;;;9.70;94.80;;;;;;5050747;28;20028;-67
2021/06/02 04:11:00;;;;;;;3.95;2.60;;;9.70;95.10;;;;;;5071146;28;20048;-66
2021/06/02 04:13:41;;;;;;;5.63;3.08;;;9.70;95.50;;;;;;5070665;28;20644;-66
2021/06/02 04:16:13;;;;;;;6.55;2.35;;;9.80;95.80;;;;;;5045038;28;20033;-71
2021/06/02 04:18:42;;;;;;;4.03;2.60;;;9.90;95.60;;;;;;5071476;28;20056;-65
2021/06/02 04:21:08;;;;;;;3.95;2.42;;;9.90;95.50;;;;;;5070717;28;20379;-71
2021/06/02 04:23:38;;;;;;;4.50;2.63;;;10.00;95.40;;;;;;5071309;28;20126;-66
2021/06/02 04:26:04;;;;;;;3.65;2.70;;;10.10;95.00;;;;;;5071170;28;20029;-66
2021/06/02 04:28:37;;;;;;;4.50;2.50;;;10.10;94.60;;;;;;5070560;28;20024;-66
2021/06/02 04:31:09;;;;;;;2.60;2.05;;;10.20;94.20;;;;;;5071027;28;20119;-66
2021/06/02 04:33:36;;;;;;;2.97;2.65;;;10.30;94.00;;;;;;5071005;28;20055;-66
2021/06/02 04:36:07;;;;;;;4.85;2.80;;;10.40;94.10;;;;;;5071442;28;20028;-66
2021/06/02 04:38:34;;;;;;;3.25;2.78;;;10.50;94.10;;;;;;5070887;28;20028;-66
2021/06/02 04:41:02;;;;;;;2.63;2.42;;;10.50;93.90;;;;;;5071411;28;20073;-66
2021/06/02 04:43:31;;;;;;;4.40;2.70;;;10.60;93.30;;;;;;5052474;28;20040;-66
2021/06/02 04:46:05;;;;;;;3.65;2.70;;;10.80;93.00;;;;;;5063259;28;20026;-66
2021/06/02 04:48:32;;;;;;;4.65;3.50;;;10.90;92.70;;;;;;5070550;28;20051;-67
2021/06/02 04:51:25;;;;;;;4.35;3.53;;;11.00;92.80;;;;;;5071004;28;20206;-66
2021/06/02 04:53:56;;;;;;;3.45;2.95;;;11.10;92.30;;;;;;5070920;28;20028;-66
2021/06/02 04:56:28;;;;;;;3.55;2.85;;;11.20;91.60;;;;;;5070060;28;20024;-67
2021/06/02 04:59:27;;;;;;;5.18;3.92;;;11.30;91.10;;;;;;5070932;28;20025;-67
2021/06/02 05:02:08;;;;;;;7.13;4.85;;;11.50;90.80;;;;;;5070938;28;20412;-66
2021/06/02 05:04:52;;;;;;;7.25;4.20;;;11.60;90.50;;;;;;5070857;28;20040;-67
2021/06/02 05:07:29;;;;;;;6.60;4.20;;;11.80;90.30;;;;;;5061549;28;20133;-66
2021/06/02 05:10:28;;;;;;;6.93;4.30;;;11.90;90.20;;;;;;5070824;28;20054;-69
2021/06/02 05:13:26;;;;;;;8.13;4.63;;;12.10;89.90;;;;;;5071145;28;20044;-67
2021/06/02 05:16:16;;;;;;;8.00;4.90;;;12.20;89.40;;;;;;5070710;28;20067;-65
2021/06/02 05:19:15;;;;;;;;;;;12.30;88.50;;;;;;5071419;28;20028;-66
2021/06/02 05:22:05;;;;;;;6.97;4.53;;;12.50;86.80;;;;;;5063443;28;19912;-66
2021/06/02 05:25:08;;;;;;;6.15;4.40;;;12.60;85.80;;;;;;5070296;28;20027;-66
2021/06/02 05:27:49;;;;;;;5.70;4.50;;;12.70;85.60;;;;;;5059034;28;20039;-66
2021/06/02 05:30:34;;;;;;;;;;;12.90;84.70;;;;;;5063811;28;20446;-67
2021/06/02 05:33:18;;;;;;;7.28;4.75;;;12.90;83.70;;;;;;5070825;28;19908;-68
2021/06/02 05:36:16;;;;;;;9.75;4.70;;;13.10;82.70;;;;;;5058253;28;20074;-68
2021/06/02 05:39:29;;;;;;;12.40;5.40;;;13.30;82.00;;;;;;5070351;28;20381;-67
2021/06/02 05:42:30;;;;;;;5.93;4.47;;;13.40;79.30;;;;;;4969512;28;20096;-67
2021/06/02 05:45:32;;;;;;;7.10;4.40;;;13.70;77.20;;;;;;4952809;28;20134;-65
2021/06/02 05:48:22;;;;;;;5.15;3.80;;;13.80;76.60;;;;;;5064008;28;20478;-70
2021/06/02 05:51:24;;;;;;;8.18;3.67;;;13.90;75.70;;;;;;5063687;28;20052;-66
2021/06/02 05:54:25;;;;;;;7.30;4.30;;;14.10;73.90;;;;;;5063627;28;20028;-67
2021/06/02 05:57:15;;;;;;;8.75;5.57;;;14.30;71.90;;;;;;5060456;28;20477;-66
2021/06/02 06:00:15;;;;;;;6.40;4.43;;;14.50;73.10;;;;;;5073211;28;20025;-67
2021/06/02 06:02:55;;;;;;;4.90;3.70;;;14.70;71.60;;;;;;5071699;28;20028;-66
2021/06/02 06:06:01;;;;;;;4.10;3.42;;;14.90;68.60;;;;;;5065721;28;20469;-66
2021/06/02 06:08:51;;;;;;;10.98;4.57;;;15.00;67.70;;;;;;5072180;28;20027;-66
2021/06/02 06:11:35;;;;;;;;;;;15.10;67.90;;;;;;5073563;28;20040;-68
2021/06/02 06:14:16;;;;;;;7.55;4.38;;;15.30;68.40;;;;;;5074162;28;19943;-67
2021/06/02 06:17:27;;;;;;;7.63;4.82;;;15.60;66.60;;;;;;5073975;28;20028;-68
2021/06/02 06:20:02;;;;;;;10.57;5.07;;;15.80;67.00;;;;;;5070307;28;20055;-68
2021/06/02 06:22:53;;;;;;;10.73;4.85;;;16.00;66.10;;;;;;5057183;28;20044;-68
2021/06/02 06:25:42;;;;;;;10.30;4.70;;;16.10;64.90;;;;;;5070831;28;20033;-67
2021/06/02 06:28:10;;;;;;;7.22;4.15;;;16.20;64.40;;;;;;5069855;28;20466;-68
2021/06/02 06:30:39;;;;;;;7.93;4.20;;;16.20;63.30;;;;;;5072486;28;20075;-68
2021/06/02 06:33:12;;;;;;;11.80;5.03;;;16.30;63.60;;;;;;5072875;28;20060;-67
2021/06/02 06:35:40;;;;;;;6.20;4.25;;;16.30;63.90;;;;;;5072854;28;20549;-67
2021/06/02 06:38:11;;;;;;;9.88;4.25;;;16.40;63.80;;;;;;5066476;28;20036;-67
2021/06/02 06:40:38;;;;;;;12.13;4.72;;;16.50;63.70;;;;;;5072655;28;20107;-67
2021/06/02 06:43:06;;;;;;;7.50;4.35;;;16.60;63.70;;;;;;5055083;28;20492;-67
2021/06/02 06:45:34;;;;;;;7.90;4.65;;;16.70;64.50;;;;;;5072558;28;20063;-68
2021/06/02 06:48:09;;;;;;;8.38;4.20;;;16.90;63.10;;;;;;5072850;28;20025;-68
2021/06/02 06:50:35;;;;;;;8.50;4.32;;;17.10;63.20;;;;;;5072129;28;20048;-68
2021/06/02 06:53:03;;;;;;;6.53;3.70;;;17.20;63.40;;;;;;5055157;28;20602;-66
2021/06/02 06:55:30;;;;;;;5.35;3.53;;;17.30;62.50;;;;;;5072424;28;20047;-67
2021/06/02 06:57:56;;;;;;;9.18;4.35;;;17.40;63.00;;;;;;5071641;28;20020;-67
2021/06/02 07:00:24;;;;;;;7.38;4.53;;;17.60;61.50;;;;;;5071753;28;20036;-67
2021/06/02 07:02:49;;;;;;;7.60;3.78;;;17.70;61.50;;;;;;5072248;28;20032;-67
2021/06/02 07:05:17;;;;;;;8.05;3.95;;;17.80;61.70;;;;;;5071899;28;20024;-73
2021/06/02 07:07:44;;;;;;;10.00;4.43;;;17.90;62.20;;;;;;5073095;28;20117;-67
2021/06/02 07:10:12;;;;;;;8.20;4.18;;;18.00;62.30;;;;;;5072345;28;20028;-67
2021/06/02 07:12:43;;;;;;;12.40;4.22;;;18.10;61.30;;;;;;5054968;28;20035;-67
2021/06/02 07:15:11;;;;;;;8.25;3.50;;;18.20;60.70;;;;;;5072519;28;20543;-68
2021/06/02 07:17:43;;;;;;;8.07;3.65;;;18.20;60.90;;;;;;5071839;28;20021;-67
2021/06/02 07:20:10;;;;;;;7.75;4.25;;;18.30;60.30;;;;;;5072434;28;20488;-67
2021/06/02 07:22:42;;;;;;;10.30;4.05;;;18.40;59.80;;;;;;5071636;28;20033;-67
2021/06/02 07:25:09;;;;;;;5.82;3.80;;;18.50;59.80;;;;;;5072861;28;20036;-67
2021/06/02 07:27:35;;;;;;;9.02;3.90;;;18.60;59.20;;;;;;5065965;28;20811;-67
2021/06/02 07:30:03;;;;;;;7.13;3.78;;;18.80;57.60;;;;;;5072656;28;20036;-67
2021/06/02 07:32:29;;;;;;;6.85;3.92;;;18.80;57.30;;;;;;5063530;28;20052;-67
2021/06/02 07:34:55;;;;;;;7.07;3.90;;;18.90;56.80;;;;;;5041530;28;20024;-66
2021/06/02 07:37:20;;;;;;;6.93;3.25;;;19.00;56.60;;;;;;5071358;28;20035;-67
2021/06/02 07:39:47;;;;;;;2.92;2.53;;;19.10;56.50;;;;;;5071882;28;20103;-67
2021/06/02 07:42:13;;;;;;;11.50;2.83;;;19.20;55.60;;;;;;5071705;28;20031;-74
2021/06/02 07:44:39;;;;;;;6.93;2.95;;;19.30;55.60;;;;;;5071071;28;20021;-67
2021/06/02 07:47:04;;;;;;;6.32;3.20;;;19.50;54.80;;;;;;5071530;28;20029;-66
2021/06/02 07:49:30;;;;;;;5.43;3.00;;;19.70;55.30;;;;;;5062724;28;20029;-72
2021/06/02 07:52:00;;;;;;;5.82;3.05;;;19.90;55.20;;;;;;5071521;28;20182;-66
2021/06/02 07:54:26;;;;;;;4.70;2.92;;;20.10;54.20;;;;;;5070639;28;20469;-67
2021/06/02 07:56:52;;;;;;;4.43;2.83;;;20.30;53.80;;;;;;5068978;28;20527;-67
2021/06/02 07:59:17;;;;;;;5.10;2.90;;;20.40;53.50;;;;;;5070830;28;20028;-67
2021/06/02 08:01:43;;;;;;;7.60;3.28;;;20.60;52.30;;;;;;5071324;28;20033;-66
2021/06/02 08:04:09;;;;;;;9.93;3.13;;;20.70;51.90;;;;;;5070532;28;20422;-67
2021/06/02 08:06:36;;;;;;;6.30;3.05;;;20.90;52.10;;;;;;5070152;28;20025;-67
2021/06/02 08:09:03;;;;;;;7.63;2.75;;;21.00;50.40;;;;;;5071388;28;20025;-67
2021/06/02 08:11:29;;;;;;;5.15;2.88;;;21.10;49.90;;;;;;5070879;28;20115;-67
2021/06/02 08:13:55;;;;;;;5.15;2.72;;;21.20;49.40;;;;;;5071497;28;20414;-67
2021/06/02 08:16:21;;;;;;;12.93;2.80;;;21.30;48.40;;;;;;5070549;28;20029;-68
2021/06/02 08:18:46;;;;;;;5.88;3.45;;;21.40;48.10;;;;;;5071205;28;20025;-68
2021/06/02 08:21:12;;;;;;;7.20;3.03;;;21.50;47.90;;;;;;5070914;28;20036;-71
2021/06/02 08:23:38;;;;;;;7.40;2.80;;;21.70;47.00;;;;;;5070178;28;20039;-69
2021/06/02 08:26:05;;;;;;;4.35;2.53;;;21.80;47.40;;;;;;5071033;28;20025;-69
2021/06/02 08:28:31;;;;;;;7.40;2.65;;;21.90;47.70;;;;;;5068432;28;20054;-68
2021/06/02 08:30:57;;;;;;;9.38;2.63;;;22.00;46.70;;;;;;5071039;28;20392;-68
2021/06/02 08:33:22;;;;;;;5.25;2.28;;;22.20;45.40;;;;;;5069907;28;20029;-68
2021/06/02 08:35:48;;;;;;;7.40;2.67;;;22.20;45.50;;;;;;5070993;28;20028;-68
2021/06/02 08:38:14;;;;;;;5.40;2.50;;;22.30;44.30;;;;;;5070768;28;20035;-69
2021/06/02 08:40:39;;;;;;;4.75;2.40;;;22.40;43.80;;;;;;5070391;28;20024;-68
2021/06/02 08:43:06;;;;;;;5.30;2.22;;;22.40;43.90;;;;;;5071188;28;20024;-69
2021/06/02 08:45:32;;;;;;;5.65;2.47;;;22.40;44.50;;;;;;5070059;28;20134;-68
2021/06/02 08:47:58;;;;;;;6.05;2.33;;;22.50;44.50;;;;;;5070568;28;20035;-68
2021/06/02 08:50:23;;;;;;;6.20;2.65;;;22.50;45.30;;;;;;5069647;28;20053;-68
2021/06/02 08:52:50;;;;;;;8.25;2.42;;;22.70;44.70;;;;;;5071314;28;20067;-69
2021/06/02 08:55:18;;;;;;;3.67;2.33;;;22.80;45.10;;;;;;5070859;28;20025;-68
2021/06/02 08:57:46;;;;;;;6.00;2.38;;;23.00;45.00;;;;;;5070043;28;20050;-69
2021/06/02 09:00:14;;;;;;;2.80;2.15;;;23.10;44.40;;;;;;5070221;28;20039;-68
2021/06/02 09:02:42;;;;;;;8.00;2.83;;;23.20;44.10;;;;;;5070445;28;20021;-67
2021/06/02 09:05:09;;;;;;;3.63;2.50;;;23.30;45.20;;;;;;5070681;28;20036;-67
2021/06/02 09:07:40;;;;;;;5.88;2.70;;;23.40;44.50;;;;;;5062133;28;20032;-67
2021/06/02 09:10:11;;;;;;;7.18;2.03;;;23.50;46.60;;;;;;5070502;28;20036;-67
2021/06/02 09:12:38;;;;;;;3.63;2.28;;;23.70;42.00;;;;;;5069661;28;20371;-67
2021/06/02 09:15:16;;;;;;;4.80;2.00;;;23.80;41.70;;;;;;5071060;28;20025;-67
2021/06/02 09:17:56;;;;;;;7.15;2.83;;;23.90;41.50;;;;;;5069910;28;20115;-67
2021/06/02 09:20:47;;;;;;;4.47;1.83;;;23.90;41.90;;;;;;5069189;28;20062;-70
2021/06/02 09:23:36;;;;;;;6.03;2.10;;;23.90;41.40;;;;;;5064991;28;20031;-67
2021/06/02 09:26:23;;;;;;;18.70;2.90;;;24.00;41.00;;;;;;5069577;28;20024;-67
2021/06/02 09:28:57;;;;;;;8.93;2.40;;;24.10;40.70;;;;;;5064798;28;20016;-68
2021/06/02 09:31:27;;;;;;;4.03;2.22;;;24.20;39.70;;;;;;5069581;28;20032;-67
2021/06/02 09:33:55;;;;;;;8.50;2.30;;;24.40;39.10;;;;;;5072742;28;20128;-67
2021/06/02 09:36:37;;;;;;;8.38;2.70;;;24.40;37.40;;;;;;5073847;28;20036;-70
2021/06/02 09:39:10;;;;;;;7.45;1.75;;;24.60;37.20;;;;;;5074500;28;20037;-67
2021/06/02 09:41:41;;;;;;;1.98;1.73;;;24.70;37.50;;;;;;5073827;28;20025;-67
2021/06/02 09:44:24;;;;;;;4.40;2.00;;;24.80;37.10;;;;;;5071918;28;20066;-68
2021/06/02 09:46:58;;;;;;;3.72;2.03;;;25.00;36.30;;;;;;5073461;28;20032;-67
2021/06/02 09:49:24;;;;;;;3.20;2.03;;;25.00;36.10;;;;;;5072954;28;20037;-67
2021/06/02 09:51:50;;;;;;;4.47;1.90;;;25.10;35.10;;;;;;5072838;28;20040;-67
2021/06/02 09:54:23;;;;;;;7.32;2.25;;;25.10;35.90;;;;;;5074210;28;20381;-67
2021/06/02 09:56:50;;;;;;;4.25;1.73;;;25.20;35.30;;;;;;5067507;28;20387;-68
2021/06/02 09:59:17;;;;;;;4.05;1.60;;;25.30;35.20;;;;;;5074505;28;20055;-67
2021/06/02 10:01:53;;;;;;;3.20;1.88;;;25.40;35.10;;;;;;5073211;28;20029;-68
2021/06/02 10:04:42;;;;;;;4.80;1.77;;;25.60;35.40;;;;;;5074094;28;20389;-67
2021/06/02 10:07:21;;;;;;;3.95;1.95;;;25.70;35.50;;;;;;5067901;28;20062;-66
2021/06/02 10:09:47;;;;;;;4.40;2.15;;;25.80;34.90;;;;;;5073695;28;20021;-66
2021/06/02 10:12:14;;;;;;;5.75;2.15;;;25.90;34.80;;;;;;5073583;28;20033;-67
2021/06/02 10:14:52;;;;;;;6.05;2.65;;;26.00;35.10;;;;;;5073228;28;20070;-66
2021/06/02 10:17:35;;;;;;;6.15;2.00;;;26.10;33.80;;;;;;5066534;28;20081;-68
2021/06/02 10:20:09;;;;;;;2.88;1.83;;;26.20;34.30;;;;;;5073421;28;20351;-68
2021/06/02 10:22:36;;;;;;;4.13;1.70;;;26.30;34.70;;;;;;5072469;28;20362;-68
2021/06/02 10:25:05;;;;;;;8.13;1.90;;;26.40;33.00;;;;;;5055576;28;20427;-66
2021/06/02 10:27:31;;;;;;;7.40;2.13;;;26.40;33.80;;;;;;5034954;28;20033;-68
2021/06/02 10:29:57;;;;;;;5.97;1.80;;;26.30;33.10;;;;;;5073835;28;20031;-67
2021/06/02 10:32:23;;;;;;;7.55;2.05;;;26.30;33.90;;;;;;5072678;28;20074;-72
2021/06/02 10:34:52;;;;;;;1.48;1.38;;;26.40;33.20;;;;;;5065994;28;20465;-69
2021/06/02 10:37:20;;;;;;;4.13;1.80;;;26.60;33.20;;;;;;5073448;28;20500;-68
2021/06/02 10:40:01;;;;;;;2.72;1.80;;;26.40;32.40;;;;;;5072679;28;20031;-68
2021/06/02 10:42:54;;;;;;;4.47;2.00;;;26.40;32.70;;;;;;5069004;28;20040;-68
2021/06/02 10:45:24;;;;;;;3.50;1.73;;;26.50;33.20;;;;;;5067136;28;20437;-68
2021/06/02 10:47:54;;;;;;;3.53;1.70;;;26.70;31.80;;;;;;5073363;28;20347;-68
2021/06/02 10:50:32;;;;;;;5.18;1.70;;;26.80;32.20;;;;;;5066117;28;20489;-68
2021/06/02 10:53:00;;;;;;;4.50;1.95;;;27.10;32.60;;;;;;5073171;28;20055;-67
2021/06/02 10:55:38;;;;;;;2.90;2.13;;;27.30;33.40;;;;;;5071560;28;20569;-68
2021/06/02 10:58:28;;;;;;;3.35;1.75;;;27.40;31.20;;;;;;5054654;28;20441;-67
2021/06/02 11:01:20;;;;;;;3.42;2.00;;;27.50;31.40;;;;;;5072899;28;20062;-67
2021/06/02 11:04:06;;;;;;;3.97;1.60;;;27.50;31.60;;;;;;5070610;28;20028;-67
2021/06/02 11:06:35;;;;;;;13.15;2.72;;;27.50;31.10;;;;;;5071751;28;20111;-66
2021/06/02 11:09:01;;;;;;;3.70;2.03;;;27.40;31.40;;;;;;5072395;28;20393;-67
2021/06/02 11:11:37;;;;;;;6.63;1.88;;;27.40;32.40;;;;;;5071981;28;20036;-67
2021/06/02 11:14:15;;;;;;;2.72;1.63;;;27.40;31.50;;;;;;5072935;28;20036;-67
2021/06/02 11:16:49;;;;;;;2.85;1.85;;;27.50;31.50;;;;;;5071200;28;20817;-67
2021/06/02 11:19:17;;;;;;;3.25;1.80;;;27.60;31.40;;;;;;5072629;28;20035;-67
2021/06/02 11:21:51;;;;;;;6.35;2.20;;;27.70;31.00;;;;;;5053742;28;20044;-67
2021/06/02 11:24:48;;;;;;;3.22;1.60;;;27.90;31.90;;;;;;5071868;28;20024;-68
2021/06/02 11:27:17;;;;;;;1.70;1.60;;;28.00;30.20;;;;;;5047108;28;20041;-67
2021/06/02 11:29:51;;;;;;;2.97;1.80;;;27.90;30.70;;;;;;5071344;28;20027;-70
2021/06/02 11:32:21;;;;;;;3.58;1.83;;;27.70;30.60;;;;;;5071883;28;20040;-68
2021/06/02 11:34:53;;;;;;;4.43;1.67;;;27.60;31.30;;;;;;5071424;28;20033;-67
2021/06/02 11:37:22;;;;;;;3.17;1.77;;;27.60;31.40;;;;;;5071382;28;20039;-67
2021/06/02 11:39:51;;;;;;;2.22;1.80;;;27.60;31.10;;;;;;5071716;28;20035;-67
2021/06/02 11:42:26;;;;;;;3.90;1.88;;;27.80;31.00;;;;;;5072465;28;20162;-67
2021/06/02 11:44:57;;;;;;;7.18;2.33;;;28.00;31.50;;;;;;5071970;28;20021;-67
2021/06/02 11:47:23;;;;;;;5.07;2.00;;;28.10;32.40;;;;;;5053361;28;20025;-71
2021/06/02 11:49:49;;;;;;;7.55;2.22;;;28.20;31.50;;;;;;5071512;28;20146;-67
2021/06/02 11:52:19;;;;;;;3.85;2.03;;;28.40;30.80;;;;;;5071567;28;20043;-71
2021/06/02 11:54:50;;;;;;;5.25;1.90;;;28.60;30.60;;;;;;5071052;28;20715;-67
2021/06/02 11:57:27;;;;;;;4.53;2.15;;;28.90;31.10;;;;;;5066046;28;20051;-69
2021/06/02 11:59:54;;;;;;;2.83;2.10;;;29.00;30.30;;;;;;5072193;28;20035;-68
2021/06/02 12:02:20;;;;;;;4.82;1.80;;;29.10;30.00;;;;;;5071526;28;20036;-68
2021/06/02 12:04:47;;;;;;;6.05;2.20;;;28.90;30.80;;;;;;5071146;28;20043;-68
2021/06/02 12:07:47;;;;;;;3.75;2.20;;;28.60;30.70;;;;;;5071258;28;20033;-68
2021/06/02 12:10:13;;;;;;;5.65;2.10;;;28.50;30.60;;;;;;5051861;28;20044;-67
2021/06/02 12:12:41;;;;;;;3.60;1.88;;;28.60;30.90;;;;;;5069946;28;20473;-68
2021/06/02 12:15:07;;;;;;;3.78;2.15;;;28.40;30.50;;;;;;5071375;28;20486;-68
2021/06/02 12:17:34;;;;;;;3.05;2.05;;;28.50;31.40;;;;;;5070379;28;20032;-68
2021/06/02 12:20:03;;;;;;;2.85;1.70;;;28.70;31.10;;;;;;5071080;28;20037;-67
2021/06/02 12:22:28;;;;;;;4.17;1.73;;;28.90;30.20;;;;;;5070428;28;20033;-68
2021/06/02 12:25:07;;;;;;;4.78;1.75;;;29.20;30.20;;;;;;5070811;28;20058;-67
2021/06/02 12:27:52;;;;;;;3.47;1.55;;;29.10;31.30;;;;;;5070266;28;20078;-67
2021/06/02 12:30:20;;;;;;;4.85;1.70;;;29.30;30.80;;;;;;5071079;28;20087;-68
2021/06/02 12:32:56;;;;;;;2.28;1.77;;;29.50;30.10;;;;;;5069750;28;20124;-67
2021/06/02 12:35:33;;;;;;;2.53;1.95;;;29.50;30.30;;;;;;5062123;28;20036;-67
2021/06/02 12:38:13;;;;;;;3.97;1.90;;;29.60;30.70;;;;;;5066749;28;20062;-68
2021/06/02 12:40:42;;;;;;;;;;;29.80;30.00;;;;;;5071664;28;20063;-67
2021/06/02 12:43:25;;;;;;;3.55;1.75;;;29.70;29.40;;;;;;5071433;28;19912;-68
2021/06/02 12:45:53;;;;;;;2.03;1.80;;;29.70;29.80;;;;;;5071339;28;20020;-67
2021/06/02 12:48:31;;;;;;;4.18;1.73;;;29.90;29.80;;;;;;5041346;28;20029;-66
2021/06/02 12:50:57;;;;;;;3.00;1.33;;;30.10;30.00;;;;;;5067118;28;20044;-66
2021/06/02 12:53:33;;;;;;;1.83;1.65;;;30.20;29.30;;;;;;5070192;28;20093;-69
2021/06/02 12:55:58;;;;;;;4.55;2.00;;;30.30;29.90;;;;;;5071438;28;20377;-66
2021/06/02 12:58:24;;;;;;;1.90;1.73;;;30.80;29.40;;;;;;5070751;28;20492;-73
2021/06/02 13:00:50;;;;;;;4.82;1.88;;;31.00;28.80;;;;;;5070365;28;20047;-67
2021/06/02 13:03:20;;;;;;;2.83;2.00;;;31.00;28.80;;;;;;5070803;28;20070;-67
2021/06/02 13:05:47;;;;;;;3.35;1.40;;;30.90;28.60;;;;;;5052623;28;20028;-67
2021/06/02 13:08:13;;;;;;;2.15;1.50;;;30.90;28.60;;;;;;5070399;28;20036;-67
2021/06/02 13:10:41;;;;;;;3.33;1.70;;;31.10;29.10;;;;;;5074017;28;20024;-68
2021/06/02 13:13:09;;;;;;;5.65;1.90;;;31.40;29.00;;;;;;5073960;28;20028;-68
2021/06/02 13:15:43;;;;;;;3.70;1.70;;;31.90;28.70;;;;;;5074075;28;20044;-67
2021/06/02 13:18:20;;;;;;;3.58;1.95;;;32.10;28.40;;;;;;5075269;28;20067;-68
2021/06/02 13:20:46;;;;;;;2.97;1.60;;;32.10;28.40;;;;;;5055741;28;20035;-68
2021/06/02 13:23:26;;;;;;;5.38;1.75;;;32.20;28.10;;;;;;5074573;28;20381;-69
2021/06/02 13:26:02;;;;;;;;;;;32.00;28.60;;;;;;5073571;28;20044;-68
2021/06/02 13:28:29;;;;;;;3.70;1.30;;;31.50;28.40;;;;;;5065999;28;19916;-72
2021/06/02 13:31:00;;;;;;;4.28;1.48;;;31.30;29.10;;;;;;5070893;28;20045;-67